Terminal Aerodrome Forecast
Issued by NWS

Home | Current Version | Previous Version | Text Only | Print | Product List | Glossary On
Versions: 1 2 3 4 5 6 7 8 9 10 11 12 13 14 15 16
000
FTAK31 PAFA 240212 AAA
TAFAUN
TAF AMD
PAUN 240212Z 2402/2424 20023G29KT P6SM -RA FEW040 OVC045
     FM240400 23018G28KT 2SM -RA BKN007 OVC015
     FM241000 24015G22KT P6SM VCSH SCT007 OVC015
     FM242000 23010G16KT P6SM -SHRA SCT007 OVC015=

USA.gov is the U.S. government's official web portal to all federal, state and local government web resources and services.